createdAt,value
2018-06-18T00:02:07.815Z,15.03
2018-06-18T00:04:36.480Z,14.96
2018-06-18T00:07:05.185Z,14.99
2018-06-18T00:09:34.034Z,14.99
2018-06-18T00:12:02.666Z,15.00
2018-06-18T00:14:31.636Z,14.97
2018-06-18T00:17:00.235Z,15.02
2018-06-18T00:19:29.100Z,15.07
2018-06-18T00:21:57.877Z,15.08
2018-06-18T00:24:26.666Z,15.08
2018-06-18T00:26:55.352Z,15.03
2018-06-18T00:29:24.157Z,15.04
2018-06-18T00:31:53.006Z,15.04
2018-06-18T00:34:21.695Z,15.00
2018-06-18T00:36:50.517Z,15.05
2018-06-18T00:39:19.099Z,15.02
2018-06-18T00:41:47.853Z,14.98
2018-06-18T00:44:16.567Z,14.98
2018-06-18T00:46:45.146Z,12.67
2018-06-18T00:49:14.184Z,14.99
2018-06-18T00:51:42.917Z,15.00
2018-06-18T00:54:11.835Z,14.97
2018-06-18T00:56:40.625Z,15.00
2018-06-18T00:59:09.561Z,14.99
2018-06-18T01:01:38.524Z,15.01
2018-06-18T01:04:07.227Z,15.09
2018-06-18T01:06:35.890Z,15.07
2018-06-18T01:09:06.920Z,15.03
2018-06-18T01:11:35.579Z,15.08
2018-06-18T01:14:04.184Z,15.09
2018-06-18T01:16:33.054Z,15.06
2018-06-18T01:19:01.805Z,15.08
2018-06-18T01:21:31.040Z,15.10
2018-06-18T01:24:11.189Z,15.07
2018-06-18T01:26:39.886Z,15.10
2018-06-18T01:29:08.919Z,15.02
2018-06-18T01:31:37.708Z,15.02
2018-06-18T01:34:10.266Z,15.02
2018-06-18T01:36:39.001Z,15.07
2018-06-18T01:39:08.658Z,14.95
2018-06-18T01:41:37.326Z,14.92
2018-06-18T01:44:06.093Z,14.86
2018-06-18T01:46:34.729Z,14.79
2018-06-18T01:49:03.546Z,14.79
2018-06-18T01:51:32.186Z,14.83
2018-06-18T01:54:00.956Z,14.62
2018-06-18T01:56:29.538Z,14.48
2018-06-18T01:58:58.436Z,14.48
2018-06-18T02:01:27.197Z,14.44
2018-06-18T02:03:56.729Z,14.41
2018-06-18T02:06:25.336Z,14.50
2018-06-18T02:08:54.046Z,14.44
2018-06-18T02:11:22.988Z,14.27
2018-06-18T02:13:51.938Z,14.28
2018-06-18T02:16:20.622Z,14.31
2018-06-18T02:18:49.512Z,14.33
2018-06-18T02:21:18.297Z,14.27
2018-06-18T02:23:47.013Z,14.21
2018-06-18T02:26:15.786Z,14.25
2018-06-18T02:28:49.994Z,14.07
2018-06-18T02:31:24.035Z,14.10
2018-06-18T02:34:56.770Z,13.99
2018-06-18T02:37:30.693Z,13.97
2018-06-18T02:40:04.787Z,13.88
2018-06-18T02:42:33.635Z,13.76
2018-06-18T02:45:02.528Z,13.67
2018-06-18T02:47:31.316Z,13.61
2018-06-18T02:50:00.109Z,13.56
2018-06-18T02:52:28.830Z,13.50
2018-06-18T02:54:57.694Z,13.48
2018-06-18T02:57:26.834Z,13.38
2018-06-18T02:59:55.850Z,13.48
2018-06-18T03:02:24.779Z,13.45
2018-06-18T03:04:53.665Z,13.43
2018-06-18T03:07:22.567Z,13.48
2018-06-18T03:09:51.356Z,13.49
2018-06-18T03:12:20.127Z,13.49
2018-06-18T03:14:48.992Z,13.33
2018-06-18T03:17:17.629Z,13.40
2018-06-18T03:19:51.749Z,13.40
2018-06-18T03:22:25.917Z,13.31
2018-06-18T03:24:59.993Z,13.32
2018-06-18T03:27:34.177Z,13.35
2018-06-18T03:30:02.825Z,13.32
2018-06-18T03:32:31.729Z,13.33
2018-06-18T03:35:00.883Z,13.35
2018-06-18T03:37:29.671Z,13.34
2018-06-18T03:39:58.509Z,13.30
2018-06-18T03:42:27.246Z,13.31
2018-06-18T03:45:37.870Z,13.32
2018-06-18T03:48:08.934Z,13.28
2018-06-18T03:50:37.662Z,13.27
2018-06-18T03:53:06.595Z,13.22
2018-06-18T03:56:08.179Z,13.21
2018-06-18T03:58:36.865Z,13.23
2018-06-18T04:01:22.000Z,13.27
2018-06-18T04:03:56.272Z,13.36
2018-06-18T04:06:30.367Z,13.44
2018-06-18T04:09:04.157Z,13.47
2018-06-18T04:11:37.832Z,13.47
2018-06-18T04:14:06.488Z,13.56
2018-06-18T04:16:35.527Z,13.60
2018-06-18T04:19:04.255Z,13.61
2018-06-18T04:21:32.956Z,13.68
2018-06-18T04:24:01.729Z,13.68
2018-06-18T04:26:30.373Z,13.56
2018-06-18T04:28:59.317Z,13.58
2018-06-18T04:31:28.012Z,13.48
2018-06-18T04:34:07.841Z,13.54
2018-06-18T04:36:36.552Z,13.50
2018-06-18T04:39:07.468Z,13.43
2018-06-18T04:41:40.561Z,13.34
2018-06-18T04:44:14.469Z,13.35
2018-06-18T04:46:48.575Z,13.32
2018-06-18T04:49:22.509Z,13.42
2018-06-18T04:51:51.602Z,13.39
2018-06-18T04:54:20.586Z,13.37
2018-06-18T04:56:49.272Z,13.41
2018-06-18T04:59:18.070Z,13.46
2018-06-18T05:01:47.089Z,13.50
2018-06-18T05:04:15.827Z,13.45
2018-06-18T05:06:44.710Z,13.43
2018-06-18T05:09:34.033Z,13.38
2018-06-18T05:12:02.886Z,13.36
2018-06-18T05:14:31.805Z,13.34
2018-06-18T05:17:00.977Z,13.31
2018-06-18T05:19:29.716Z,13.19
2018-06-18T05:21:58.613Z,13.30
2018-06-18T05:24:27.574Z,13.27
2018-06-18T05:26:57.401Z,13.32
2018-06-18T05:29:27.207Z,13.41
2018-06-18T05:31:56.204Z,13.44
2018-06-18T05:34:27.594Z,13.46
2018-06-18T05:36:58.741Z,13.54
2018-06-18T05:39:27.480Z,13.41
2018-06-18T05:41:56.532Z,13.39
2018-06-18T05:44:25.422Z,13.45
2018-06-18T05:46:54.105Z,13.43
2018-06-18T05:49:22.763Z,13.43
2018-06-18T05:51:51.532Z,13.46
2018-06-18T05:54:20.117Z,13.46
2018-06-18T05:56:48.708Z,13.47
2018-06-18T05:59:17.594Z,13.45
2018-06-18T06:01:46.346Z,13.54
2018-06-18T06:04:15.177Z,13.58
2018-06-18T06:06:44.171Z,13.63
2018-06-18T06:09:13.685Z,13.74
2018-06-18T06:11:42.464Z,13.81
2018-06-18T06:14:11.322Z,13.86
2018-06-18T06:16:40.277Z,13.86
2018-06-18T06:19:09.018Z,13.85
2018-06-18T06:21:38.254Z,13.82
2018-06-18T06:24:07.224Z,13.89
2018-06-18T06:26:36.227Z,13.94
2018-06-18T06:29:04.948Z,13.83
2018-06-18T06:31:33.808Z,13.94
2018-06-18T06:34:02.467Z,13.90
2018-06-18T06:36:31.212Z,13.98
2018-06-18T06:39:00.019Z,14.00
2018-06-18T06:41:29.915Z,14.14
2018-06-18T06:43:58.607Z,14.28
2018-06-18T06:46:27.518Z,14.31
2018-06-18T06:48:56.230Z,14.34
2018-06-18T06:51:25.155Z,14.38
2018-06-18T06:53:55.023Z,14.39
2018-06-18T06:56:23.938Z,14.38
2018-06-18T06:58:52.934Z,14.27
2018-06-18T07:01:22.011Z,14.22
2018-06-18T07:03:50.988Z,14.09
2018-06-18T07:06:20.172Z,13.95
2018-06-18T07:08:48.815Z,13.81
2018-06-18T07:11:17.626Z,13.86
2018-06-18T07:13:46.697Z,13.84
2018-06-18T07:16:15.613Z,13.75
2018-06-18T07:18:44.523Z,13.84
2018-06-18T07:21:13.451Z,13.81
2018-06-18T07:23:42.207Z,13.85
2018-06-18T07:26:11.073Z,13.91
2018-06-18T07:28:39.623Z,13.94
2018-06-18T07:31:08.349Z,13.91
2018-06-18T07:33:37.206Z,13.87
2018-06-18T07:36:05.805Z,13.87
2018-06-18T07:38:34.661Z,13.95
2018-06-18T07:41:03.392Z,14.11
2018-06-18T07:43:32.496Z,14.19
2018-06-18T07:46:01.197Z,14.23
2018-06-18T07:48:29.877Z,14.30
2018-06-18T07:50:58.778Z,14.41
2018-06-18T07:53:27.387Z,14.49
2018-06-18T07:55:56.042Z,14.56
2018-06-18T07:58:24.806Z,14.65
2018-06-18T08:00:53.660Z,14.67
2018-06-18T08:03:22.571Z,14.38
2018-06-18T08:05:51.525Z,14.52
2018-06-18T08:09:23.781Z,14.39
2018-06-18T08:11:52.625Z,14.67
2018-06-18T08:14:21.270Z,14.88
2018-06-18T08:16:50.120Z,14.80
2018-06-18T08:19:18.941Z,14.63
2018-06-18T08:21:47.637Z,14.44
2018-06-18T08:24:16.587Z,14.52
2018-06-18T08:26:45.876Z,14.36
2018-06-18T08:29:14.648Z,14.27
2018-06-18T08:31:43.361Z,14.29
2018-06-18T08:34:12.035Z,14.39
2018-06-18T08:36:40.882Z,14.14
2018-06-18T08:39:11.184Z,13.98
2018-06-18T08:41:40.218Z,14.10
2018-06-18T08:44:08.933Z,13.85
2018-06-18T08:46:38.092Z,13.91
2018-06-18T08:49:08.366Z,13.74
2018-06-18T08:51:42.178Z,13.82
2018-06-18T08:54:16.233Z,13.88
2018-06-18T08:56:50.628Z,13.86
2018-06-18T08:59:24.776Z,13.85
2018-06-18T09:01:53.930Z,13.84
2018-06-18T09:04:27.821Z,13.92
2018-06-18T09:07:02.364Z,13.90
2018-06-18T09:09:31.644Z,13.77
2018-06-18T09:12:00.303Z,13.69
2018-06-18T09:14:29.000Z,13.62
2018-06-18T09:16:57.874Z,13.58
2018-06-18T09:19:26.702Z,13.58
2018-06-18T09:21:55.601Z,13.58
2018-06-18T09:24:29.386Z,13.60
2018-06-18T09:27:15.768Z,13.38
2018-06-18T09:29:49.750Z,13.37
2018-06-18T09:32:18.575Z,13.61
2018-06-18T09:34:47.251Z,13.72
2018-06-18T09:37:16.108Z,13.65
2018-06-18T09:39:44.818Z,13.74
2018-06-18T09:42:13.541Z,13.79
2018-06-18T09:44:42.221Z,13.83
2018-06-18T09:47:10.894Z,13.86
2018-06-18T09:49:45.216Z,13.65
2018-06-18T09:52:19.053Z,13.80
2018-06-18T09:54:53.513Z,14.13
2018-06-18T09:57:28.217Z,14.35
2018-06-18T10:00:10.044Z,14.56
2018-06-18T10:02:38.796Z,14.69
2018-06-18T10:05:07.488Z,14.96
2018-06-18T10:07:36.500Z,15.37
2018-06-18T10:10:05.642Z,16.00
2018-06-18T10:12:34.676Z,16.49
2018-06-18T10:15:03.473Z,17.00
2018-06-18T10:17:32.219Z,17.51
2018-06-18T10:20:00.905Z,17.91
2018-06-18T10:22:29.692Z,17.96
2018-06-18T10:24:58.388Z,18.18
2018-06-18T10:27:27.237Z,18.83
2018-06-18T10:29:56.106Z,18.83
2018-06-18T10:32:29.882Z,18.07
2018-06-18T10:35:03.891Z,18.08
2018-06-18T10:37:37.980Z,17.84
2018-06-18T10:40:12.055Z,17.47
2018-06-18T10:42:46.155Z,17.11
2018-06-18T10:45:14.900Z,16.73
2018-06-18T10:47:43.795Z,16.60
2018-06-18T10:50:12.631Z,16.46
2018-06-18T10:52:41.388Z,16.35
2018-06-18T10:55:10.153Z,16.80
2018-06-18T10:57:39.140Z,16.81
2018-06-18T11:00:09.570Z,16.70
2018-06-18T11:02:38.316Z,16.18
2018-06-18T11:05:07.060Z,16.15
2018-06-18T11:07:35.784Z,16.09
2018-06-18T11:10:04.768Z,16.29
2018-06-18T11:12:33.521Z,16.28
2018-06-18T11:15:02.204Z,16.19
2018-06-18T11:17:36.180Z,15.91
2018-06-18T11:20:10.318Z,15.55
2018-06-18T11:22:44.398Z,15.39
2018-06-18T11:25:18.372Z,15.24
2018-06-18T11:27:47.385Z,15.02
2018-06-18T11:30:16.265Z,14.90
2018-06-18T11:32:45.180Z,15.04
2018-06-18T11:35:14.267Z,14.96
2018-06-18T11:37:43.105Z,14.99
2018-06-18T11:40:12.123Z,14.98
2018-06-18T11:42:40.782Z,14.96
2018-06-18T11:45:09.731Z,15.01
2018-06-18T11:47:38.536Z,15.10
2018-06-18T11:50:07.292Z,15.14
2018-06-18T11:52:35.943Z,15.28
2018-06-18T11:55:04.664Z,15.37
2018-06-18T11:57:33.366Z,15.26
2018-06-18T12:00:07.279Z,15.19
2018-06-18T12:02:41.297Z,15.09
2018-06-18T12:05:15.364Z,15.02
2018-06-18T12:08:47.183Z,15.07
2018-06-18T12:11:16.049Z,15.11
2018-06-18T12:13:44.875Z,15.06
2018-06-18T12:16:13.651Z,15.12
2018-06-18T12:18:42.523Z,15.22
2018-06-18T12:21:11.145Z,15.29
2018-06-18T12:23:39.779Z,15.47
2018-06-18T12:26:08.602Z,15.84
2018-06-18T12:28:37.302Z,16.35
2018-06-18T12:31:06.077Z,16.58
2018-06-18T12:33:34.753Z,16.45
2018-06-18T12:36:03.753Z,16.70
2018-06-18T12:38:32.713Z,17.05
2018-06-18T12:41:01.582Z,17.69
2018-06-18T12:43:33.882Z,17.76
2018-06-18T12:46:07.936Z,17.43
2018-06-18T12:48:42.049Z,17.07
2018-06-18T12:51:16.060Z,16.76
2018-06-18T12:53:49.969Z,16.47
2018-06-18T12:56:24.222Z,16.36
2018-06-18T12:58:53.333Z,16.41
2018-06-18T13:01:23.485Z,16.57
2018-06-18T13:03:52.097Z,19.12
2018-06-18T13:06:21.065Z,19.29
2018-06-18T13:08:50.264Z,20.07
2018-06-18T13:11:19.011Z,19.74
2018-06-18T13:13:47.736Z,19.54
2018-06-18T13:16:16.365Z,21.85
2018-06-18T13:18:45.037Z,21.64
2018-06-18T13:21:13.771Z,23.02
2018-06-18T13:23:42.560Z,22.31
2018-06-18T13:26:11.182Z,23.14
2018-06-18T13:28:39.910Z,21.70
2018-06-18T13:31:09.114Z,22.84
2018-06-18T13:33:38.089Z,19.85
2018-06-18T13:36:06.958Z,18.58
2018-06-18T13:38:40.864Z,20.20
2018-06-18T13:41:14.851Z,21.64
2018-06-18T13:43:48.715Z,22.08
2018-06-18T13:46:22.687Z,22.84
2018-06-18T13:48:55.605Z,20.33
2018-06-18T13:51:25.760Z,19.39
2018-06-18T13:53:54.754Z,17.95
2018-06-18T13:56:23.697Z,17.38
2018-06-18T13:58:52.922Z,17.06
2018-06-18T14:01:21.666Z,17.06
2018-06-18T14:03:50.316Z,16.85
2018-06-18T14:06:19.572Z,17.33
2018-06-18T14:08:48.278Z,18.15
2018-06-18T14:11:16.937Z,18.58
2018-06-18T14:13:45.690Z,18.21
2018-06-18T14:16:14.645Z,17.92
2018-06-18T14:18:43.395Z,17.53
2018-06-18T14:21:12.120Z,17.24
2018-06-18T14:23:40.791Z,17.18
2018-06-18T14:26:09.463Z,17.62
2018-06-18T14:28:38.219Z,17.59
2018-06-18T14:31:12.379Z,18.15
2018-06-18T14:33:46.177Z,18.40
2018-06-18T14:36:20.579Z,18.32
2018-06-18T14:38:54.291Z,17.90
2018-06-18T14:41:23.107Z,17.93
2018-06-18T14:43:51.918Z,17.99
2018-06-18T14:46:20.912Z,17.99
2018-06-18T14:48:49.680Z,18.28
2018-06-18T14:51:18.486Z,18.42
2018-06-18T14:53:47.198Z,18.48
2018-06-18T14:56:20.127Z,18.04
2018-06-18T14:59:02.452Z,18.87
2018-06-18T15:01:31.155Z,18.41
2018-06-18T15:03:59.966Z,18.28
2018-06-18T15:06:28.750Z,17.96
2018-06-18T15:08:57.859Z,18.01
2018-06-18T15:11:26.585Z,18.17
2018-06-18T15:13:55.658Z,18.56
2018-06-18T15:16:26.360Z,19.11
2018-06-18T15:18:55.020Z,19.02
2018-06-18T15:21:23.661Z,18.85
2018-06-18T15:23:52.623Z,18.49
2018-06-18T15:26:21.553Z,18.33
2018-06-18T15:28:50.377Z,18.41
2018-06-18T15:31:19.077Z,18.43
2018-06-18T15:33:47.656Z,18.39
2018-06-18T15:36:16.476Z,18.25
2018-06-18T15:38:45.233Z,17.92
2018-06-18T15:41:14.172Z,17.61
2018-06-18T15:43:43.254Z,17.63
2018-06-18T15:46:11.891Z,17.70
2018-06-18T15:48:40.693Z,17.68
2018-06-18T15:51:09.340Z,17.46
2018-06-18T15:53:38.369Z,17.56
2018-06-18T15:56:07.043Z,17.70
2018-06-18T15:58:35.931Z,17.90
2018-06-18T16:01:04.694Z,17.84
2018-06-18T16:03:33.394Z,17.83
2018-06-18T16:06:02.215Z,17.80
2018-06-18T16:08:31.032Z,17.68
2018-06-18T16:10:59.781Z,17.63
2018-06-18T16:13:28.630Z,17.71
2018-06-18T16:17:00.651Z,17.90
2018-06-18T16:19:29.430Z,18.03
2018-06-18T16:21:58.144Z,18.15
2018-06-18T16:24:26.836Z,18.11
2018-06-18T16:26:55.637Z,18.15
2018-06-18T16:29:24.767Z,18.11
2018-06-18T16:31:53.572Z,18.04
2018-06-18T16:34:22.411Z,17.76
2018-06-18T16:36:51.209Z,17.93
2018-06-18T16:39:19.947Z,18.11
2018-06-18T16:41:48.706Z,18.05
2018-06-18T16:44:17.720Z,17.89
2018-06-18T16:46:46.324Z,18.00
2018-06-18T16:49:15.396Z,18.09
2018-06-18T16:51:44.224Z,17.89
2018-06-18T16:54:12.901Z,17.77
2018-06-18T16:56:41.650Z,17.76
2018-06-18T16:59:10.457Z,17.84
2018-06-18T17:01:39.230Z,17.77
2018-06-18T17:04:07.862Z,17.80
2018-06-18T17:06:36.611Z,17.87
2018-06-18T17:09:08.337Z,17.77
2018-06-18T17:11:37.159Z,17.64
2018-06-18T17:14:06.396Z,17.61
2018-06-18T17:16:35.227Z,17.68
2018-06-18T17:19:03.872Z,17.70
2018-06-18T17:21:32.739Z,17.78
2018-06-18T17:24:01.757Z,17.74
2018-06-18T17:26:31.010Z,17.72
2018-06-18T17:29:00.213Z,17.73
2018-06-18T17:31:29.038Z,17.67
2018-06-18T17:33:57.726Z,17.74
2018-06-18T17:36:26.555Z,17.79
2018-06-18T17:38:55.472Z,17.83
2018-06-18T17:41:24.955Z,17.90
2018-06-18T17:43:54.288Z,17.96
2018-06-18T17:46:23.320Z,17.98
2018-06-18T17:48:52.133Z,18.07
2018-06-18T17:51:21.117Z,18.06
2018-06-18T17:53:50.198Z,18.12
2018-06-18T17:56:19.409Z,18.11
2018-06-18T17:58:48.158Z,18.00
2018-06-18T18:01:17.357Z,17.93
2018-06-18T18:03:46.146Z,17.89
2018-06-18T18:06:15.031Z,17.84
2018-06-18T18:08:43.970Z,17.90
2018-06-18T18:11:12.821Z,17.95
2018-06-18T18:13:41.886Z,17.98
2018-06-18T18:16:11.217Z,17.99
2018-06-18T18:18:40.455Z,17.88
2018-06-18T18:21:09.458Z,17.85
2018-06-18T18:23:38.231Z,17.85
2018-06-18T18:26:07.082Z,17.84
2018-06-18T18:28:36.129Z,17.84
2018-06-18T18:31:05.286Z,17.81
2018-06-18T18:33:34.301Z,17.80
2018-06-18T18:36:03.675Z,17.79
2018-06-18T18:38:32.595Z,17.76
2018-06-18T18:41:01.566Z,17.76
2018-06-18T18:43:30.236Z,17.76
2018-06-18T18:45:59.282Z,17.73
2018-06-18T18:48:28.227Z,17.65
2018-06-18T18:50:56.956Z,17.57
2018-06-18T18:53:25.809Z,17.55
2018-06-18T18:56:06.967Z,17.45
2018-06-18T18:59:46.823Z,17.39
2018-06-18T19:02:15.976Z,17.32
2018-06-18T19:04:57.106Z,17.31
2018-06-18T19:07:35.398Z,17.30
2018-06-18T19:10:24.013Z,17.24
2018-06-18T19:25:03.630Z,16.74
2018-06-18T19:27:32.382Z,16.74
2018-06-18T19:30:01.155Z,16.74
2018-06-18T19:32:30.048Z,16.71
2018-06-18T19:34:58.757Z,16.64
2018-06-18T19:37:29.982Z,16.52
2018-06-18T19:40:00.889Z,16.38
2018-06-18T19:42:32.065Z,16.34
2018-06-18T19:45:00.827Z,16.29
2018-06-18T19:47:36.484Z,16.30
2018-06-18T19:50:05.739Z,16.29
2018-06-18T19:52:35.310Z,16.22
2018-06-18T19:55:09.836Z,16.15
2018-06-18T19:57:38.484Z,16.17
2018-06-18T20:00:07.165Z,16.10
2018-06-18T20:02:36.414Z,16.03
2018-06-18T20:05:11.098Z,16.01
2018-06-18T20:07:44.950Z,15.96
2018-06-18T20:10:14.866Z,15.93
2018-06-18T20:12:44.630Z,15.88
2018-06-18T20:15:15.593Z,15.83
2018-06-18T20:17:45.883Z,15.75
2018-06-18T20:20:15.557Z,15.72
2018-06-18T20:22:45.584Z,15.61
2018-06-18T20:25:15.226Z,15.62
2018-06-18T20:27:43.974Z,15.63
2018-06-18T20:30:13.131Z,15.57
2018-06-18T20:32:41.997Z,15.54
2018-06-18T20:35:30.042Z,15.52
2018-06-18T20:37:58.676Z,15.45
2018-06-18T20:40:27.664Z,15.43
2018-06-18T20:42:56.694Z,15.36
2018-06-18T20:45:25.359Z,15.31
2018-06-18T20:47:54.066Z,15.29
2018-06-18T20:50:23.718Z,15.30
2018-06-18T20:52:52.793Z,15.22
2018-06-18T20:55:22.062Z,15.24
2018-06-18T20:57:55.561Z,15.22
2018-06-18T21:00:24.152Z,15.18
2018-06-18T21:02:53.067Z,15.16
2018-06-18T21:05:22.317Z,15.09
2018-06-18T21:07:51.649Z,15.06
2018-06-18T21:10:21.152Z,15.04
2018-06-18T21:12:51.068Z,14.96
2018-06-18T21:15:20.451Z,14.89
2018-06-18T21:17:49.504Z,14.84
2018-06-18T21:20:18.438Z,14.80
2018-06-18T21:22:47.096Z,14.78
2018-06-18T21:25:15.778Z,14.74
2018-06-18T21:27:45.090Z,14.71
2018-06-18T21:30:13.790Z,14.69
2018-06-18T21:32:47.383Z,14.70
2018-06-18T21:35:23.498Z,14.66
2018-06-18T21:38:02.774Z,14.61
2018-06-18T21:40:36.343Z,14.63
2018-06-18T21:43:05.111Z,14.64
2018-06-18T21:45:33.722Z,14.58
2018-06-18T21:48:21.244Z,14.55
2018-06-18T21:50:52.294Z,14.54
2018-06-18T21:53:25.875Z,14.53
2018-06-18T21:55:56.981Z,14.49
2018-06-18T21:58:26.553Z,14.47
2018-06-18T22:01:00.748Z,14.40
2018-06-18T22:03:32.210Z,14.41
2018-06-18T22:06:12.988Z,14.38
2018-06-18T22:08:42.660Z,14.35
2018-06-18T22:11:14.067Z,14.26
2018-06-18T22:13:46.809Z,14.24
2018-06-18T22:16:20.196Z,14.25
2018-06-18T22:18:52.342Z,14.19
2018-06-18T22:21:24.523Z,14.17
2018-06-18T22:24:00.165Z,14.14
2018-06-18T22:26:33.131Z,14.11
2018-06-18T22:29:21.208Z,14.07
2018-06-18T22:31:52.890Z,13.99
2018-06-18T22:34:23.972Z,13.98
2018-06-18T22:37:07.220Z,13.99
2018-06-18T22:39:41.750Z,14.00
2018-06-18T22:42:12.252Z,14.03
2018-06-18T22:44:54.917Z,14.01
2018-06-18T22:47:25.011Z,14.00
2018-06-18T22:49:55.220Z,14.04
2018-06-18T22:52:35.404Z,14.00
2018-06-18T22:55:13.227Z,14.06
2018-06-18T22:57:42.561Z,14.12
2018-06-18T23:03:57.476Z,14.01
2018-06-18T23:06:29.615Z,13.99
2018-06-18T23:09:01.616Z,13.96
2018-06-18T23:11:31.845Z,13.95
2018-06-18T23:14:03.675Z,13.91
2018-06-18T23:16:34.948Z,13.88
2018-06-18T23:19:05.568Z,13.78
2018-06-18T23:21:35.880Z,13.68
2018-06-18T23:24:07.819Z,13.67
2018-06-18T23:26:41.279Z,13.77
2018-06-18T23:29:16.687Z,13.71
2018-06-18T23:31:47.502Z,13.73
2018-06-18T23:34:17.742Z,13.70
2018-06-18T23:36:52.508Z,13.49
2018-06-18T23:39:25.885Z,13.58
2018-06-18T23:42:01.797Z,13.62
2018-06-18T23:44:36.903Z,13.53
2018-06-18T23:47:13.169Z,13.54
2018-06-18T23:55:46.742Z,13.16
2018-06-18T23:58:36.510Z,13.24
